Private Wetterstation Sandau
Wetterdaten: Mittwoch, 29.08.2012
Datum Zeit Temp. A. Feuchte A. Luftdruck Regen Wind Richtung Richtung Taupunkt Windchill
29.08.2012 00:01 17,1 C 71 % 1017,6 hPa 0,0 l/m 0,0 km/h (0 Bft) O 90 11,8 C 17,1 C
29.08.2012 00:06 16,9 C 71 % 1017,7 hPa 0,0 l/m 0,0 km/h (0 Bft) O 90 11,6 C 16,9 C
29.08.2012 00:11 16,9 C 71 % 1017,8 hPa 0,0 l/m 0,0 km/h (0 Bft) O 90 11,6 C 16,9 C
29.08.2012 00:16 16,7 C 72 % 1017,8 hPa 0,0 l/m 0,0 km/h (0 Bft) O 90 11,6 C 16,7 C
29.08.2012 00:21 16,5 C 73 % 1017,9 hPa 0,0 l/m 0,0 km/h (0 Bft) O 90 11,6 C 16,5 C
29.08.2012 00:26 16,4 C 73 % 1017,8 hPa 0,0 l/m 0,0 km/h (0 Bft) O 90 11,5 C 16,4 C
29.08.2012 00:31 16,3 C 74 % 1017,8 hPa 0,0 l/m 0,0 km/h (0 Bft) O 90 11,7 C 16,3 C
29.08.2012 00:36 16,2 C 74 % 1017,8 hPa 0,0 l/m 0,0 km/h (0 Bft) O 90 11,6 C 16,2 C
29.08.2012 00:41 16,0 C 73 % 1017,9 hPa 0,0 l/m 0,0 km/h (0 Bft) O 90 11,2 C 16,0 C
29.08.2012 00:46 15,9 C 74 % 1017,9 hPa 0,0 l/m 0,0 km/h (0 Bft) O 90 11,3 C 15,9 C
29.08.2012 00:51 15,8 C 74 % 1017,9 hPa 0,0 l/m 0,0 km/h (0 Bft) O 90 11,2 C 15,8 C
29.08.2012 00:56 15,8 C 74 % 1018,0 hPa 0,0 l/m 0,0 km/h (0 Bft) O 90 11,2 C 15,8 C
29.08.2012 01:01 15,6 C 75 % 1018,0 hPa 0,0 l/m 0,0 km/h (0 Bft) O 90 11,2 C 15,6 C
29.08.2012 01:06 15,5 C 75 % 1018,1 hPa 0,0 l/m 0,0 km/h (0 Bft) O 90 11,1 C 15,5 C
29.08.2012 01:11 15,4 C 75 % 1018,1 hPa 0,0 l/m 0,0 km/h (0 Bft) O 90 11,0 C 15,4 C
29.08.2012 01:16 15,3 C 76 % 1017,9 hPa 0,0 l/m 0,0 km/h (0 Bft) O 90 11,1 C 15,3 C
29.08.2012 01:21 15,1 C 77 % 1018,0 hPa 0,0 l/m 0,0 km/h (0 Bft) O 90 11,1 C 15,1 C
29.08.2012 01:26 15,0 C 77 % 1018,0 hPa 0,0 l/m 0,0 km/h (0 Bft) O 90 11,0 C 15,0 C
29.08.2012 01:31 14,9 C 77 % 1018,1 hPa 0,0 l/m 0,0 km/h (0 Bft) O 90 10,9 C 14,9 C
29.08.2012 01:36 14,9 C 77 % 1018,2 hPa 0,0 l/m 0,0 km/h (0 Bft) O 90 10,9 C 14,9 C
29.08.2012 01:41 14,9 C 77 % 1018,2 hPa 0,0 l/m 0,0 km/h (0 Bft) O 90 10,9 C 14,9 C
29.08.2012 01:46 14,9 C 78 % 1018,2 hPa 0,0 l/m 0,0 km/h (0 Bft) O 90 11,1 C 14,9 C
29.08.2012 01:51 14,9 C 79 % 1018,3 hPa 0,0 l/m 0,0 km/h (0 Bft) O 90 11,3 C 14,9 C
29.08.2012 01:56 14,9 C 80 % 1018,3 hPa 0,0 l/m 0,0 km/h (0 Bft) O 90 11,5 C 14,9 C
29.08.2012 02:01 14,9 C 80 % 1018,4 hPa 0,0 l/m 0,0 km/h (0 Bft) O 90 11,5 C 14,9 C
29.08.2012 02:06 14,9 C 80 % 1018,2 hPa 0,0 l/m 0,0 km/h (0 Bft) O 90 11,5 C 14,9 C
29.08.2012 02:11 14,9 C 81 % 1018,2 hPa 0,0 l/m 0,0 km/h (0 Bft) O 90 11,7 C 14,9 C
29.08.2012 02:16 14,9 C 81 % 1018,2 hPa 0,0 l/m 0,0 km/h (0 Bft) O 90 11,7 C 14,9 C
29.08.2012 02:21 14,9 C 82 % 1018,3 hPa 0,0 l/m 0,0 km/h (0 Bft) O 90 11,9 C 14,9 C
29.08.2012 02:26 14,9 C 82 % 1018,4 hPa 0,0 l/m 0,0 km/h (0 Bft) O 90 11,9 C 14,9 C
29.08.2012 02:31 14,9 C 82 % 1018,4 hPa 0,0 l/m 0,0 km/h (0 Bft) O 90 11,9 C 14,9 C
29.08.2012 02:36 14,9 C 82 % 1018,4 hPa 0,0 l/m 4,0 km/h (1 Bft) O 90 11,9 C 14,9 C
29.08.2012 02:41 14,9 C 82 % 1018,5 hPa 0,0 l/m 1,4 km/h (1 Bft) O-NO 67 11,9 C 14,9 C
29.08.2012 02:46 14,9 C 81 % 1018,5 hPa 0,0 l/m 0,0 km/h (0 Bft) O-NO 67 11,7 C 14,9 C
29.08.2012 02:51 14,8 C 81 % 1018,5 hPa 0,0 l/m 0,0 km/h (0 Bft) O-NO 67 11,6 C 14,8 C
29.08.2012 02:56 14,7 C 81 % 1018,5 hPa 0,0 l/m 0,0 km/h (0 Bft) O-NO 67 11,5 C 14,7 C
29.08.2012 03:01 14,6 C 81 % 1018,6 hPa 0,0 l/m 2,5 km/h (1 Bft) W 270 11,4 C 14,6 C
29.08.2012 03:06 14,6 C 82 % 1018,6 hPa 0,0 l/m 0,0 km/h (0 Bft) W 270 11,6 C 14,6 C
29.08.2012 03:11 14,6 C 82 % 1018,6 hPa 0,0 l/m 0,0 km/h (0 Bft) W 270 11,6 C 14,6 C
29.08.2012 03:16 14,5 C 82 % 1018,7 hPa 0,0 l/m 1,1 km/h (1 Bft) W 270 11,5 C 14,5 C
29.08.2012 03:21 14,5 C 82 % 1018,8 hPa 0,0 l/m 1,1 km/h (1 Bft) W 270 11,5 C 14,5 C
29.08.2012 03:26 14,4 C 82 % 1018,8 hPa 0,0 l/m 1,1 km/h (1 Bft) W 270 11,4 C 14,4 C
29.08.2012 03:31 14,4 C 83 % 1018,7 hPa 0,0 l/m 1,4 km/h (1 Bft) W 270 11,5 C 14,4 C
29.08.2012 03:36 14,4 C 83 % 1018,6 hPa 0,0 l/m 1,8 km/h (1 Bft) W 270 11,5 C 14,4 C
29.08.2012 03:41 14,4 C 83 % 1018,8 hPa 0,0 l/m 2,5 km/h (1 Bft) W 270 11,5 C 14,4 C
29.08.2012 03:46 14,4 C 83 % 1018,8 hPa 0,0 l/m 0,0 km/h (0 Bft) W 270 11,5 C 14,4 C
29.08.2012 03:51 14,3 C 83 % 1018,8 hPa 0,0 l/m 2,9 km/h (1 Bft) W 270 11,5 C 14,3 C
29.08.2012 03:56 14,3 C 83 % 1018,9 hPa 0,0 l/m 2,9 km/h (1 Bft) W-NW 292 11,5 C 14,3 C
29.08.2012 04:01 14,3 C 83 % 1018,9 hPa 0,0 l/m 0,0 km/h (0 Bft) W-NW 292 11,5 C 14,3 C
29.08.2012 04:06 14,2 C 83 % 1018,9 hPa 0,0 l/m 1,4 km/h (1 Bft) W-NW 292 11,4 C 14,2 C
29.08.2012 04:11 14,2 C 83 % 1018,9 hPa 0,0 l/m 1,8 km/h (1 Bft) W-NW 292 11,4 C 14,2 C
29.08.2012 04:16 14,1 C 83 % 1018,7 hPa 0,0 l/m 0,0 km/h (0 Bft) W-NW 292 11,3 C 14,1 C
29.08.2012 04:21 14,1 C 83 % 1018,9 hPa 0,0 l/m 0,0 km/h (0 Bft) W-NW 292 11,3 C 14,1 C
29.08.2012 04:26 14,0 C 83 % 1019,0 hPa 0,0 l/m 0,0 km/h (0 Bft) W-NW 292 11,2 C 14,0 C
29.08.2012 04:31 13,9 C 84 % 1019,0 hPa 0,0 l/m 1,4 km/h (1 Bft) W-NW 292 11,2 C 13,9 C
29.08.2012 04:36 13,9 C 84 % 1019,1 hPa 0,0 l/m 1,1 km/h (1 Bft) W-NW 292 11,2 C 13,9 C
29.08.2012 04:41 13,9 C 84 % 1019,2 hPa 0,0 l/m 1,4 km/h (1 Bft) W-NW 292 11,2 C 13,9 C
29.08.2012 04:46 13,9 C 84 % 1019,2 hPa 0,0 l/m 0,0 km/h (0 Bft) W-NW 292 11,2 C 13,9 C
29.08.2012 04:51 13,9 C 84 % 1019,1 hPa 0,0 l/m 0,0 km/h (0 Bft) W-NW 292 11,2 C 13,9 C
29.08.2012 04:56 13,8 C 84 % 1019,0 hPa 0,0 l/m 0,0 km/h (0 Bft) W-NW 292 11,1 C 13,8 C
29.08.2012 05:01 13,8 C 85 % 1019,1 hPa 0,0 l/m 0,0 km/h (0 Bft) W-NW 292 11,3 C 13,8 C
29.08.2012 05:06 13,6 C 85 % 1019,1 hPa 0,0 l/m 0,0 km/h (0 Bft) W-NW 292 11,1 C 13,6 C
29.08.2012 05:11 13,6 C 84 % 1019,1 hPa 0,0 l/m 0,0 km/h (0 Bft) W-NW 292 10,9 C 13,6 C
29.08.2012 05:16 13,6 C 85 % 1019,2 hPa 0,0 l/m 0,0 km/h (0 Bft) W-NW 292 11,1 C 13,6 C
29.08.2012 05:21 13,5 C 85 % 1019,2 hPa 0,0 l/m 0,0 km/h (0 Bft) W-NW 292 11,0 C 13,5 C
29.08.2012 05:26 13,5 C 84 % 1019,2 hPa 0,0 l/m 0,0 km/h (0 Bft) W-NW 292 10,8 C 13,5 C
29.08.2012 05:31 13,5 C 84 % 1019,3 hPa 0,0 l/m 0,0 km/h (0 Bft) W-NW 292 10,8 C 13,5 C
29.08.2012 05:36 13,6 C 85 % 1019,2 hPa 0,0 l/m 0,0 km/h (0 Bft) W-NW 292 11,1 C 13,6 C
29.08.2012 05:41 13,7 C 85 % 1019,4 hPa 0,0 l/m 0,0 km/h (0 Bft) W-NW 292 11,2 C 13,7 C
29.08.2012 05:46 13,8 C 85 % 1019,5 hPa 0,0 l/m 0,0 km/h (0 Bft) W-NW 292 11,3 C 13,8 C
29.08.2012 05:51 13,8 C 85 % 1019,5 hPa 0,0 l/m 3,2 km/h (1 Bft) W-SW 247 11,3 C 13,8 C
29.08.2012 05:56 13,9 C 86 % 1019,4 hPa 0,0 l/m 0,0 km/h (0 Bft) W-SW 247 11,6 C 13,9 C
29.08.2012 06:01 13,9 C 86 % 1019,5 hPa 0,0 l/m 0,0 km/h (0 Bft) W-SW 247 11,6 C 13,9 C
29.08.2012 06:06 14,0 C 86 % 1019,6 hPa 0,0 l/m 4,3 km/h (1 Bft) W-SW 247 11,7 C 14,0 C
29.08.2012 06:11 14,1 C 86 % 1019,4 hPa 0,0 l/m 5,8 km/h (2 Bft) W-SW 247 11,8 C 14,1 C
29.08.2012 06:16 14,0 C 86 % 1019,8 hPa 0,0 l/m 8,3 km/h (2 Bft) W 270 11,7 C 14,0 C
29.08.2012 06:21 14,0 C 86 % 1019,7 hPa 0,0 l/m 0,0 km/h (0 Bft) W-SW 247 11,7 C 14,0 C
29.08.2012 06:26 14,1 C 86 % 1019,6 hPa 0,0 l/m 2,5 km/h (1 Bft) W 270 11,8 C 14,1 C
29.08.2012 06:31 14,1 C 87 % 1019,8 hPa 0,0 l/m 4,3 km/h (1 Bft) W-SW 247 12,0 C 14,1 C
29.08.2012 06:36 14,1 C 87 % 1019,7 hPa 0,0 l/m 1,1 km/h (1 Bft) W-SW 247 12,0 C 14,1 C
29.08.2012 06:41 14,1 C 87 % 1019,7 hPa 0,0 l/m 0,0 km/h (0 Bft) W-SW 247 12,0 C 14,1 C
29.08.2012 06:46 14,1 C 87 % 1019,8 hPa 0,0 l/m 0,0 km/h (0 Bft) W-SW 247 12,0 C 14,1 C
29.08.2012 06:51 14,1 C 86 % 1019,8 hPa 0,0 l/m 0,0 km/h (0 Bft) W-SW 247 11,8 C 14,1 C
29.08.2012 06:56 14,1 C 86 % 1019,9 hPa 0,0 l/m 0,0 km/h (0 Bft) W-SW 247 11,8 C 14,1 C
29.08.2012 07:01 14,2 C 86 % 1019,9 hPa 0,0 l/m 0,0 km/h (0 Bft) W-SW 247 11,9 C 14,2 C
29.08.2012 07:06 14,4 C 87 % 1019,8 hPa 0,0 l/m 0,0 km/h (0 Bft) W-SW 247 12,3 C 14,4 C
29.08.2012 07:11 14,8 C 87 % 1019,8 hPa 0,0 l/m 0,0 km/h (0 Bft) W-SW 247 12,7 C 14,8 C
29.08.2012 07:16 14,9 C 87 % 1019,7 hPa 0,0 l/m 0,0 km/h (0 Bft) W-SW 247 12,8 C 14,9 C
29.08.2012 07:21 15,1 C 86 % 1019,7 hPa 0,0 l/m 0,0 km/h (0 Bft) W-SW 247 12,8 C 15,1 C
29.08.2012 07:26 15,3 C 85 % 1019,8 hPa 0,0 l/m 0,0 km/h (0 Bft) W-SW 247 12,8 C 15,3 C
29.08.2012 07:31 15,3 C 85 % 1019,9 hPa 0,0 l/m 0,0 km/h (0 Bft) W-SW 247 12,8 C 15,3 C
29.08.2012 07:36 15,5 C 85 % 1019,8 hPa 0,0 l/m 0,0 km/h (0 Bft) W-SW 247 13,0 C 15,5 C
29.08.2012 07:41 15,6 C 84 % 1019,8 hPa 0,0 l/m 0,0 km/h (0 Bft) W-SW 247 12,9 C 15,6 C
29.08.2012 07:46 15,8 C 84 % 1019,9 hPa 0,0 l/m 0,0 km/h (0 Bft) W-SW 247 13,1 C 15,8 C
29.08.2012 07:51 15,9 C 84 % 1019,8 hPa 0,0 l/m 0,0 km/h (0 Bft) W-SW 247 13,2 C 15,9 C
29.08.2012 07:56 15,9 C 84 % 1019,9 hPa 0,0 l/m 0,0 km/h (0 Bft) W-SW 247 13,2 C 15,9 C
29.08.2012 08:01 15,9 C 83 % 1019,7 hPa 0,0 l/m 0,0 km/h (0 Bft) W-SW 247 13,0 C 15,9 C
29.08.2012 08:06 15,9 C 83 % 1019,8 hPa 0,0 l/m 0,0 km/h (0 Bft) W-SW 247 13,0 C 15,9 C
29.08.2012 08:11 16,0 C 83 % 1019,9 hPa 0,0 l/m 0,0 km/h (0 Bft) W-SW 247 13,1 C 16,0 C
29.08.2012 08:16 16,1 C 83 % 1019,7 hPa 0,0 l/m 0,0 km/h (0 Bft) W-SW 247 13,2 C 16,1 C
29.08.2012 08:21 16,3 C 83 % 1019,8 hPa 0,0 l/m 0,0 km/h (0 Bft) W-SW 247 13,4 C 16,3 C
29.08.2012 08:26 16,4 C 83 % 1019,7 hPa 0,0 l/m 0,0 km/h (0 Bft) W-SW 247 13,5 C 16,4 C
29.08.2012 08:31 16,7 C 83 % 1019,7 hPa 0,0 l/m 0,0 km/h (0 Bft) W-SW 247 13,8 C 16,7 C
29.08.2012 08:36 16,9 C 82 % 1019,7 hPa 0,0 l/m 0,0 km/h (0 Bft) W-SW 247 13,8 C 16,9 C
29.08.2012 08:41 17,0 C 82 % 1019,9 hPa 0,0 l/m 0,0 km/h (0 Bft) W-SW 247 13,9 C 17,0 C
29.08.2012 08:46 17,0 C 82 % 1019,9 hPa 0,0 l/m 0,0 km/h (0 Bft) SO 135 13,9 C 17,0 C
29.08.2012 08:51 17,2 C 82 % 1019,9 hPa 0,0 l/m 0,0 km/h (0 Bft) SO 135 14,1 C 17,2 C
29.08.2012 08:56 17,5 C 81 % 1020,1 hPa 0,0 l/m 0,0 km/h (0 Bft) S-SW 202 14,2 C 17,5 C
29.08.2012 09:01 17,6 C 80 % 1020,1 hPa 0,0 l/m 2,5 km/h (1 Bft) SW 225 14,1 C 17,6 C
29.08.2012 09:06 17,8 C 81 % 1020,1 hPa 0,0 l/m 0,0 km/h (0 Bft) SW 225 14,5 C 17,8 C
29.08.2012 09:11 18,0 C 81 % 1020,2 hPa 0,0 l/m 2,2 km/h (1 Bft) SW 225 14,7 C 18,0 C
29.08.2012 09:16 18,2 C 80 % 1020,1 hPa 0,0 l/m 0,0 km/h (0 Bft) SW 225 14,7 C 18,2 C
29.08.2012 09:21 18,4 C 79 % 1020,0 hPa 0,0 l/m 1,4 km/h (1 Bft) S-SW 202 14,7 C 18,4 C
29.08.2012 09:26 18,9 C 79 % 1020,3 hPa 0,0 l/m 7,6 km/h (2 Bft) W 270 15,2 C 18,9 C
29.08.2012 09:31 19,2 C 78 % 1020,3 hPa 0,0 l/m 4,0 km/h (1 Bft) W-SW 247 15,3 C 19,2 C
29.08.2012 09:36 19,4 C 77 % 1020,3 hPa 0,0 l/m 0,0 km/h (0 Bft) W 270 15,3 C 19,4 C
29.08.2012 09:41 19,6 C 76 % 1020,2 hPa 0,0 l/m 0,0 km/h (0 Bft) W 270 15,2 C 19,6 C
29.08.2012 09:46 19,9 C 76 % 1020,3 hPa 0,0 l/m 0,0 km/h (0 Bft) SW 225 15,5 C 19,9 C
29.08.2012 09:51 20,1 C 75 % 1020,2 hPa 0,0 l/m 3,6 km/h (1 Bft) SW 225 15,5 C 20,1 C
29.08.2012 09:56 20,4 C 73 % 1020,2 hPa 0,0 l/m 3,6 km/h (1 Bft) SW 225 15,4 C 20,4 C
29.08.2012 10:01 20,5 C 73 % 1020,2 hPa 0,0 l/m 2,5 km/h (1 Bft) S-SW 202 15,5 C 20,5 C
29.08.2012 10:06 20,7 C 72 % 1020,2 hPa 0,0 l/m 0,0 km/h (0 Bft) S-SW 202 15,5 C 20,7 C
29.08.2012 10:11 20,8 C 71 % 1020,1 hPa 0,0 l/m 0,0 km/h (0 Bft) SW 225 15,3 C 20,8 C
29.08.2012 10:16 20,9 C 71 % 1020,2 hPa 0,0 l/m 1,4 km/h (1 Bft) W-NW 292 15,4 C 20,9 C
29.08.2012 10:21 21,2 C 71 % 1020,2 hPa 0,0 l/m 4,0 km/h (1 Bft) W-SW 247 15,7 C 21,2 C
29.08.2012 10:26 21,2 C 70 % 1020,2 hPa 0,0 l/m 1,4 km/h (1 Bft) W-NW 292 15,5 C 21,2 C
29.08.2012 10:31 21,2 C 70 % 1020,2 hPa 0,0 l/m 5,0 km/h (1 Bft) SW 225 15,5 C 21,2 C
29.08.2012 10:36 21,4 C 69 % 1020,1 hPa 0,0 l/m 2,5 km/h (1 Bft) W 270 15,5 C 21,4 C
29.08.2012 10:41 21,5 C 69 % 1020,3 hPa 0,0 l/m 3,6 km/h (1 Bft) S-SW 202 15,6 C 21,5 C
29.08.2012 10:46 21,6 C 68 % 1020,3 hPa 0,0 l/m 4,0 km/h (1 Bft) W-SW 247 15,4 C 21,6 C
29.08.2012 10:51 21,8 C 68 % 1020,1 hPa 0,0 l/m 3,6 km/h (1 Bft) S-SW 202 15,6 C 21,8 C
29.08.2012 10:56 21,9 C 67 % 1020,0 hPa 0,0 l/m 0,0 km/h (0 Bft) W 270 15,5 C 21,9 C
29.08.2012 11:01 22,1 C 66 % 1020,0 hPa 0,0 l/m 2,9 km/h (1 Bft) SW 225 15,4 C 22,1 C
29.08.2012 11:06 22,3 C 65 % 1020,1 hPa 0,0 l/m 9,0 km/h (2 Bft) W 270 15,4 C 22,3 C
29.08.2012 11:11 22,6 C 64 % 1019,9 hPa 0,0 l/m 1,4 km/h (1 Bft) W-SW 247 15,4 C 22,6 C
29.08.2012 11:16 22,8 C 64 % 1019,8 hPa 0,0 l/m 7,6 km/h (2 Bft) W 270 15,6 C 22,8 C
29.08.2012 11:21 22,9 C 63 % 1019,9 hPa 0,0 l/m 11,2 km/h (2 Bft) W 270 15,5 C 22,9 C
29.08.2012 11:26 23,0 C 63 % 1019,9 hPa 0,0 l/m 2,9 km/h (1 Bft) W-SW 247 15,6 C 23,0 C
29.08.2012 11:31 23,1 C 62 % 1020,0 hPa 0,0 l/m 0,0 km/h (0 Bft) W-NW 292 15,4 C 23,1 C
29.08.2012 11:36 23,1 C 62 % 1019,9 hPa 0,0 l/m 2,5 km/h (1 Bft) W-NW 292 15,4 C 23,1 C
29.08.2012 11:41 23,3 C 62 % 1019,7 hPa 0,0 l/m 1,4 km/h (1 Bft) W-SW 247 15,6 C 23,3 C
29.08.2012 11:46 23,3 C 61 % 1019,7 hPa 0,0 l/m 0,0 km/h (0 Bft) SO 135 15,3 C 23,3 C
29.08.2012 11:51 23,4 C 60 % 1019,8 hPa 0,0 l/m 2,5 km/h (1 Bft) SO 135 15,2 C 23,4 C
29.08.2012 11:56 23,7 C 60 % 1019,7 hPa 0,0 l/m 4,7 km/h (1 Bft) SW 225 15,5 C 23,7 C
29.08.2012 12:01 23,9 C 59 % 1019,6 hPa 0,0 l/m 5,8 km/h (2 Bft) S-SW 202 15,4 C 23,9 C
29.08.2012 12:06 24,2 C 58 % 1019,6 hPa 0,0 l/m 2,5 km/h (1 Bft) W 270 15,4 C 24,2 C
29.08.2012 12:11 24,4 C 57 % 1019,4 hPa 0,0 l/m 5,8 km/h (2 Bft) S-SW 202 15,3 C 24,4 C
29.08.2012 12:16 24,5 C 55 % 1019,7 hPa 0,0 l/m 0,0 km/h (0 Bft) W 270 14,9 C 24,5 C
29.08.2012 12:21 24,5 C 56 % 1019,6 hPa 0,0 l/m 3,6 km/h (1 Bft) W-SW 247 15,1 C 24,5 C
29.08.2012 12:26 24,6 C 55 % 1019,5 hPa 0,0 l/m 4,0 km/h (1 Bft) S-SW 202 14,9 C 24,6 C
29.08.2012 12:31 24,9 C 55 % 1019,4 hPa 0,0 l/m 10,1 km/h (2 Bft) W-SW 247 15,2 C 24,9 C
29.08.2012 12:36 25,1 C 53 % 1019,3 hPa 0,0 l/m 4,3 km/h (1 Bft) SW 225 14,8 C 25,1 C
29.08.2012 12:41 25,2 C 53 % 1019,4 hPa 0,0 l/m 2,9 km/h (1 Bft) S-SW 202 14,9 C 25,2 C
29.08.2012 12:46 25,3 C 51 % 1019,3 hPa 0,0 l/m 4,0 km/h (1 Bft) SW 225 14,4 C 25,3 C
29.08.2012 12:51 25,4 C 51 % 1019,4 hPa 0,0 l/m 8,3 km/h (2 Bft) W-SW 247 14,5 C 25,4 C
29.08.2012 12:56 25,5 C 51 % 1019,3 hPa 0,0 l/m 6,8 km/h (2 Bft) S 180 14,6 C 25,5 C
29.08.2012 13:01 25,5 C 50 % 1019,1 hPa 0,0 l/m 5,0 km/h (1 Bft) W-NW 292 14,3 C 25,5 C
29.08.2012 13:06 25,6 C 49 % 1019,1 hPa 0,0 l/m 6,1 km/h (2 Bft) S 180 14,1 C 25,6 C
29.08.2012 13:11 25,8 C 49 % 1019,2 hPa 0,0 l/m 4,7 km/h (1 Bft) SW 225 14,3 C 25,8 C
29.08.2012 13:16 25,9 C 47 % 1019,1 hPa 0,0 l/m 7,6 km/h (2 Bft) W 270 13,7 C 25,9 C
29.08.2012 13:21 25,9 C 46 % 1019,0 hPa 0,0 l/m 0,0 km/h (0 Bft) W-SW 247 13,4 C 25,9 C
29.08.2012 13:26 26,1 C 46 % 1019,1 hPa 0,0 l/m 0,0 km/h (0 Bft) SW 225 13,6 C 26,1 C
29.08.2012 13:31 26,2 C 45 % 1019,0 hPa 0,0 l/m 10,4 km/h (2 Bft) SW 225 13,3 C 26,2 C
29.08.2012 13:36 26,1 C 45 % 1018,9 hPa 0,0 l/m 11,9 km/h (2 Bft) W-SW 247 13,2 C 26,1 C
29.08.2012 13:41 25,9 C 47 % 1018,9 hPa 0,0 l/m 3,2 km/h (1 Bft) W 270 13,7 C 25,9 C
29.08.2012 13:46 26,1 C 46 % 1019,0 hPa 0,0 l/m 6,5 km/h (2 Bft) N-NW 337 13,6 C 26,1 C
29.08.2012 13:51 26,3 C 46 % 1019,0 hPa 0,0 l/m 7,2 km/h (2 Bft) SW 225 13,7 C 26,3 C
29.08.2012 13:56 26,6 C 45 % 1018,8 hPa 0,0 l/m 7,6 km/h (2 Bft) S-SW 202 13,7 C 26,6 C
29.08.2012 14:01 26,9 C 45 % 1019,0 hPa 0,0 l/m 3,6 km/h (1 Bft) SW 225 13,9 C 26,9 C
29.08.2012 14:06 27,1 C 45 % 1018,7 hPa 0,0 l/m 1,4 km/h (1 Bft) SO 135 14,1 C 27,1 C
29.08.2012 14:11 27,4 C 44 % 1018,6 hPa 0,0 l/m 6,1 km/h (2 Bft) SW 225 14,0 C 27,4 C
29.08.2012 14:16 27,3 C 43 % 1018,8 hPa 0,0 l/m 3,2 km/h (1 Bft) S 180 13,6 C 27,3 C
29.08.2012 14:21 27,1 C 43 % 1018,7 hPa 0,0 l/m 3,6 km/h (1 Bft) W 270 13,4 C 27,1 C
29.08.2012 14:26 27,2 C 42 % 1018,5 hPa 0,0 l/m 3,6 km/h (1 Bft) W-SW 247 13,2 C 27,2 C
29.08.2012 14:31 27,3 C 42 % 1018,6 hPa 0,0 l/m 2,5 km/h (1 Bft) W 270 13,2 C 27,3 C
29.08.2012 14:36 27,6 C 43 % 1018,5 hPa 0,0 l/m 9,4 km/h (2 Bft) S-SO 157 13,9 C 27,6 C
29.08.2012 14:41 27,6 C 42 % 1018,6 hPa 0,0 l/m 5,8 km/h (2 Bft) S-SW 202 13,5 C 27,6 C
29.08.2012 14:46 27,8 C 42 % 1018,6 hPa 0,0 l/m 6,1 km/h (2 Bft) S-SW 202 13,7 C 27,8 C
29.08.2012 14:51 27,8 C 41 % 1018,5 hPa 0,0 l/m 6,1 km/h (2 Bft) S-SO 157 13,3 C 27,8 C
29.08.2012 14:56 27,8 C 41 % 1018,4 hPa 0,0 l/m 0,0 km/h (0 Bft) SO 135 13,3 C 27,8 C
29.08.2012 15:01 27,4 C 41 % 1018,4 hPa 0,0 l/m 6,1 km/h (2 Bft) S-SW 202 13,0 C 27,4 C
29.08.2012 15:06 27,3 C 41 % 1018,5 hPa 0,0 l/m 1,8 km/h (1 Bft) S-SO 157 12,9 C 27,3 C
29.08.2012 15:11 27,5 C 41 % 1018,3 hPa 0,0 l/m 16,9 km/h (3 Bft) S-SO 157 13,1 C 27,5 C
29.08.2012 15:16 27,8 C 40 % 1018,3 hPa 0,0 l/m 9,0 km/h (2 Bft) S-SW 202 12,9 C 27,8 C
29.08.2012 15:21 27,9 C 40 % 1018,2 hPa 0,0 l/m 12,2 km/h (2 Bft) SW 225 13,0 C 27,9 C
29.08.2012 15:26 27,9 C 40 % 1018,3 hPa 0,0 l/m 10,8 km/h (2 Bft) S-SW 202 13,0 C 27,9 C
29.08.2012 15:31 27,9 C 40 % 1018,2 hPa 0,0 l/m 5,8 km/h (2 Bft) SW 225 13,0 C 27,9 C
29.08.2012 15:36 27,8 C 40 % 1018,0 hPa 0,0 l/m 4,3 km/h (1 Bft) SO 135 12,9 C 27,8 C
29.08.2012 15:41 27,5 C 40 % 1017,9 hPa 0,0 l/m 5,8 km/h (2 Bft) SW 225 12,7 C 27,5 C
29.08.2012 15:46 27,4 C 41 % 1017,9 hPa 0,0 l/m 1,4 km/h (1 Bft) S 180 13,0 C 27,4 C
29.08.2012 15:51 27,4 C 41 % 1017,8 hPa 0,0 l/m 0,0 km/h (0 Bft) S-SW 202 13,0 C 27,4 C
29.08.2012 15:56 27,6 C 40 % 1017,6 hPa 0,0 l/m 3,2 km/h (1 Bft) S-SO 157 12,8 C 27,6 C
29.08.2012 16:01 27,8 C 40 % 1017,8 hPa 0,0 l/m 5,8 km/h (2 Bft) S 180 12,9 C 27,8 C
29.08.2012 16:06 27,9 C 39 % 1017,6 hPa 0,0 l/m 9,4 km/h (2 Bft) S-SO 157 12,6 C 27,9 C
29.08.2012 16:11 28,0 C 39 % 1017,6 hPa 0,0 l/m 3,2 km/h (1 Bft) S 180 12,7 C 28,0 C
29.08.2012 16:16 28,1 C 39 % 1017,5 hPa 0,0 l/m 1,4 km/h (1 Bft) W-NW 292 12,8 C 28,1 C
29.08.2012 16:21 28,3 C 38 % 1017,6 hPa 0,0 l/m 4,7 km/h (1 Bft) SO 135 12,6 C 28,3 C
29.08.2012 16:26 28,3 C 39 % 1017,5 hPa 0,0 l/m 2,9 km/h (1 Bft) SO 135 13,0 C 28,3 C
29.08.2012 16:31 28,5 C 38 % 1017,5 hPa 0,0 l/m 10,8 km/h (2 Bft) SW 225 12,8 C 28,5 C
29.08.2012 16:36 28,6 C 38 % 1017,4 hPa 0,0 l/m 5,0 km/h (1 Bft) S 180 12,9 C 28,6 C
29.08.2012 16:41 28,7 C 38 % 1017,4 hPa 0,0 l/m 7,6 km/h (2 Bft) S-SO 157 13,0 C 28,7 C
29.08.2012 16:46 28,7 C 37 % 1017,5 hPa 0,0 l/m 6,1 km/h (2 Bft) SW 225 12,5 C 28,7 C
29.08.2012 16:51 28,6 C 38 % 1017,4 hPa 0,0 l/m 5,0 km/h (1 Bft) SW 225 12,9 C 28,6 C
29.08.2012 16:56 28,5 C 37 % 1017,3 hPa 0,0 l/m 11,5 km/h (2 Bft) S-SW 202 12,4 C 28,5 C
29.08.2012 17:01 28,4 C 38 % 1017,3 hPa 0,0 l/m 7,2 km/h (2 Bft) S-SO 157 12,7 C 28,4 C
29.08.2012 17:06 28,5 C 38 % 1017,3 hPa 0,0 l/m 9,7 km/h (2 Bft) S 180 12,8 C 28,5 C
29.08.2012 17:11 28,5 C 38 % 1017,1 hPa 0,0 l/m 11,5 km/h (2 Bft) SO 135 12,8 C 28,5 C
29.08.2012 17:16 28,5 C 38 % 1016,9 hPa 0,0 l/m 6,5 km/h (2 Bft) S-SW 202 12,8 C 28,5 C
29.08.2012 17:21 28,5 C 38 % 1017,1 hPa 0,0 l/m 6,5 km/h (2 Bft) W-SW 247 12,8 C 28,5 C
29.08.2012 17:26 28,3 C 38 % 1017,1 hPa 0,0 l/m 4,7 km/h (1 Bft) S 180 12,6 C 28,3 C
29.08.2012 17:31 28,3 C 38 % 1017,0 hPa 0,0 l/m 7,6 km/h (2 Bft) S-SW 202 12,6 C 28,3 C
29.08.2012 17:36 28,2 C 38 % 1017,0 hPa 0,0 l/m 3,6 km/h (1 Bft) SO 135 12,5 C 28,2 C
29.08.2012 17:41 27,9 C 38 % 1016,9 hPa 0,0 l/m 3,2 km/h (1 Bft) SO 135 12,2 C 27,9 C
29.08.2012 17:46 27,8 C 39 % 1016,8 hPa 0,0 l/m 7,9 km/h (2 Bft) S-SO 157 12,6 C 27,8 C
29.08.2012 17:51 27,6 C 39 % 1016,7 hPa 0,0 l/m 5,8 km/h (2 Bft) S 180 12,4 C 27,6 C
29.08.2012 17:56 27,5 C 40 % 1016,8 hPa 0,0 l/m 7,6 km/h (2 Bft) SO 135 12,7 C 27,5 C
29.08.2012 18:01 27,4 C 40 % 1016,8 hPa 0,0 l/m 4,3 km/h (1 Bft) S-SO 157 12,6 C 27,4 C
29.08.2012 18:06 27,4 C 41 % 1016,7 hPa 0,0 l/m 3,6 km/h (1 Bft) S-SO 157 13,0 C 27,4 C
29.08.2012 18:11 27,4 C 41 % 1016,7 hPa 0,0 l/m 9,4 km/h (2 Bft) S-SO 157 13,0 C 27,4 C
29.08.2012 18:16 27,4 C 41 % 1016,8 hPa 0,0 l/m 9,0 km/h (2 Bft) W-SW 247 13,0 C 27,4 C
29.08.2012 18:21 27,4 C 41 % 1016,7 hPa 0,0 l/m 8,3 km/h (2 Bft) SO 135 13,0 C 27,4 C
29.08.2012 18:26 27,2 C 41 % 1016,7 hPa 0,0 l/m 7,2 km/h (2 Bft) S-SW 202 12,8 C 27,2 C
29.08.2012 18:31 27,0 C 42 % 1016,7 hPa 0,0 l/m 5,0 km/h (1 Bft) S 180 13,0 C 27,0 C
29.08.2012 18:36 26,9 C 42 % 1016,6 hPa 0,0 l/m 5,8 km/h (2 Bft) NW 315 12,9 C 26,9 C
29.08.2012 18:41 26,8 C 43 % 1016,7 hPa 0,0 l/m 4,7 km/h (1 Bft) S-SO 157 13,2 C 26,8 C
29.08.2012 18:46 26,8 C 43 % 1016,6 hPa 0,0 l/m 2,2 km/h (1 Bft) S-SO 157 13,2 C 26,8 C
29.08.2012 18:51 26,7 C 44 % 1016,6 hPa 0,0 l/m 6,5 km/h (2 Bft) S-SO 157 13,4 C 26,7 C
29.08.2012 18:56 26,6 C 44 % 1016,4 hPa 0,0 l/m 3,6 km/h (1 Bft) O 90 13,3 C 26,6 C
29.08.2012 19:01 26,4 C 44 % 1016,3 hPa 0,0 l/m 2,5 km/h (1 Bft) S-SO 157 13,1 C 26,4 C
29.08.2012 19:06 26,4 C 45 % 1016,3 hPa 0,0 l/m 5,0 km/h (1 Bft) SO 135 13,5 C 26,4 C
29.08.2012 19:11 26,3 C 46 % 1016,4 hPa 0,0 l/m 2,9 km/h (1 Bft) S-SO 157 13,7 C 26,3 C
29.08.2012 19:16 26,2 C 45 % 1016,5 hPa 0,0 l/m 7,6 km/h (2 Bft) SO 135 13,3 C 26,2 C
29.08.2012 19:21 25,9 C 46 % 1016,4 hPa 0,0 l/m 3,6 km/h (1 Bft) SO 135 13,4 C 25,9 C
29.08.2012 19:26 25,9 C 46 % 1016,5 hPa 0,0 l/m 6,5 km/h (2 Bft) O-SO 112 13,4 C 25,9 C
29.08.2012 19:31 25,6 C 46 % 1016,6 hPa 0,0 l/m 3,2 km/h (1 Bft) SO 135 13,1 C 25,6 C
29.08.2012 19:36 25,1 C 48 % 1016,3 hPa 0,0 l/m 5,0 km/h (1 Bft) S-SO 157 13,3 C 25,1 C
29.08.2012 19:41 24,7 C 49 % 1016,4 hPa 0,0 l/m 2,2 km/h (1 Bft) S-SO 157 13,3 C 24,7 C
29.08.2012 19:46 24,4 C 49 % 1016,5 hPa 0,0 l/m 0,0 km/h (0 Bft) SO 135 13,0 C 24,4 C
29.08.2012 19:51 24,1 C 50 % 1016,5 hPa 0,0 l/m 0,0 km/h (0 Bft) SO 135 13,0 C 24,1 C
29.08.2012 19:56 23,9 C 51 % 1016,5 hPa 0,0 l/m 4,0 km/h (1 Bft) O-SO 112 13,1 C 23,9 C
29.08.2012 20:01 23,6 C 51 % 1016,6 hPa 0,0 l/m 2,5 km/h (1 Bft) S-SO 157 12,9 C 23,6 C
29.08.2012 20:06 23,5 C 52 % 1016,6 hPa 0,0 l/m 5,4 km/h (1 Bft) O-SO 112 13,1 C 23,5 C
29.08.2012 20:11 23,3 C 53 % 1016,3 hPa 0,0 l/m 4,7 km/h (1 Bft) SO 135 13,2 C 23,3 C
29.08.2012 20:16 23,1 C 54 % 1016,4 hPa 0,0 l/m 8,3 km/h (2 Bft) S-SO 157 13,3 C 23,1 C
29.08.2012 20:21 22,9 C 54 % 1016,4 hPa 0,0 l/m 2,5 km/h (1 Bft) SO 135 13,1 C 22,9 C
29.08.2012 20:26 22,8 C 55 % 1016,5 hPa 0,0 l/m 3,6 km/h (1 Bft) SO 135 13,3 C 22,8 C
29.08.2012 20:31 22,6 C 56 % 1016,7 hPa 0,0 l/m 6,5 km/h (2 Bft) O-SO 112 13,4 C 22,6 C
29.08.2012 20:36 22,3 C 56 % 1016,5 hPa 0,0 l/m 2,5 km/h (1 Bft) O-SO 112 13,1 C 22,3 C
29.08.2012 20:41 22,1 C 57 % 1016,5 hPa 0,0 l/m 2,2 km/h (1 Bft) S-SO 157 13,2 C 22,1 C
29.08.2012 20:46 21,9 C 58 % 1016,5 hPa 0,0 l/m 1,8 km/h (1 Bft) SO 135 13,3 C 21,9 C
29.08.2012 20:51 21,8 C 58 % 1016,6 hPa 0,0 l/m 3,6 km/h (1 Bft) O-SO 112 13,2 C 21,8 C
29.08.2012 20:56 21,6 C 59 % 1016,7 hPa 0,0 l/m 0,0 km/h (0 Bft) O-SO 112 13,2 C 21,6 C
29.08.2012 21:01 21,4 C 59 % 1016,5 hPa 0,0 l/m 0,0 km/h (0 Bft) O-SO 112 13,0 C 21,4 C
29.08.2012 21:06 21,3 C 60 % 1016,6 hPa 0,0 l/m 0,0 km/h (0 Bft) O-SO 112 13,2 C 21,3 C
29.08.2012 21:11 21,2 C 60 % 1016,6 hPa 0,0 l/m 0,0 km/h (0 Bft) O-SO 112 13,1 C 21,2 C
29.08.2012 21:16 21,1 C 61 % 1016,6 hPa 0,0 l/m 6,1 km/h (2 Bft) O-SO 112 13,3 C 21,1 C
29.08.2012 21:21 20,9 C 61 % 1016,7 hPa 0,0 l/m 6,5 km/h (2 Bft) O-SO 112 13,1 C 20,9 C
29.08.2012 21:26 20,8 C 62 % 1016,7 hPa 0,0 l/m 4,3 km/h (1 Bft) O 90 13,2 C 20,8 C
29.08.2012 21:31 20,7 C 62 % 1016,5 hPa 0,0 l/m 4,7 km/h (1 Bft) O-SO 112 13,2 C 20,7 C
29.08.2012 21:36 20,6 C 63 % 1016,6 hPa 0,0 l/m 4,7 km/h (1 Bft) O 90 13,3 C 20,6 C
29.08.2012 21:41 20,4 C 63 % 1016,5 hPa 0,0 l/m 4,0 km/h (1 Bft) O-SO 112 13,1 C 20,4 C
29.08.2012 21:46 20,4 C 63 % 1016,6 hPa 0,0 l/m 6,5 km/h (2 Bft) O 90 13,1 C 20,4 C
29.08.2012 21:51 20,3 C 64 % 1016,7 hPa 0,0 l/m 3,6 km/h (1 Bft) O-SO 112 13,3 C 20,3 C
29.08.2012 21:56 20,2 C 64 % 1016,7 hPa 0,0 l/m 6,5 km/h (2 Bft) O 90 13,2 C 20,2 C
29.08.2012 22:01 20,1 C 64 % 1016,7 hPa 0,0 l/m 3,6 km/h (1 Bft) SO 135 13,1 C 20,1 C
29.08.2012 22:06 20,0 C 64 % 1016,7 hPa 0,0 l/m 4,7 km/h (1 Bft) O-SO 112 13,0 C 20,0 C
29.08.2012 22:11 19,9 C 65 % 1016,5 hPa 0,0 l/m 1,4 km/h (1 Bft) O-SO 112 13,1 C 19,9 C
29.08.2012 22:16 19,8 C 65 % 1016,5 hPa 0,0 l/m 4,0 km/h (1 Bft) NO 45 13,0 C 19,8 C
29.08.2012 22:21 19,8 C 66 % 1016,7 hPa 0,0 l/m 2,9 km/h (1 Bft) O-SO 112 13,3 C 19,8 C
29.08.2012 22:26 19,6 C 66 % 1016,6 hPa 0,0 l/m 0,0 km/h (0 Bft) SO 135 13,1 C 19,6 C
29.08.2012 22:31 19,6 C 66 % 1016,6 hPa 0,0 l/m 2,5 km/h (1 Bft) O-SO 112 13,1 C 19,6 C
29.08.2012 22:36 19,5 C 67 % 1016,6 hPa 0,0 l/m 2,2 km/h (1 Bft) O-SO 112 13,2 C 19,5 C
29.08.2012 22:41 19,4 C 67 % 1016,5 hPa 0,0 l/m 6,1 km/h (2 Bft) O-SO 112 13,1 C 19,4 C
29.08.2012 22:46 19,3 C 67 % 1016,5 hPa 0,0 l/m 2,5 km/h (1 Bft) O-SO 112 13,0 C 19,3 C
29.08.2012 22:51 19,3 C 68 % 1016,6 hPa 0,0 l/m 2,9 km/h (1 Bft) O-SO 112 13,2 C 19,3 C
29.08.2012 22:56 19,2 C 68 % 1016,6 hPa 0,0 l/m 2,5 km/h (1 Bft) O-SO 112 13,1 C 19,2 C
29.08.2012 23:01 19,1 C 68 % 1016,4 hPa 0,0 l/m 1,8 km/h (1 Bft) O-SO 112 13,1 C 19,1 C
29.08.2012 23:06 19,1 C 68 % 1016,3 hPa 0,0 l/m 2,9 km/h (1 Bft) O-SO 112 13,1 C 19,1 C
29.08.2012 23:11 18,9 C 68 % 1016,3 hPa 0,0 l/m 3,6 km/h (1 Bft) O-SO 112 12,9 C 18,9 C
29.08.2012 23:16 18,9 C 68 % 1016,3 hPa 0,0 l/m 4,3 km/h (1 Bft) O-SO 112 12,9 C 18,9 C
29.08.2012 23:21 18,9 C 69 % 1016,2 hPa 0,0 l/m 2,9 km/h (1 Bft) O-SO 112 13,1 C 18,9 C
29.08.2012 23:26 18,8 C 70 % 1016,2 hPa 0,0 l/m 0,0 km/h (0 Bft) O 90 13,2 C 18,8 C
29.08.2012 23:31 18,7 C 70 % 1016,2 hPa 0,0 l/m 5,0 km/h (1 Bft) O-SO 112 13,1 C 18,7 C
29.08.2012 23:36 18,6 C 70 % 1016,2 hPa 0,0 l/m 3,2 km/h (1 Bft) O 90 13,0 C 18,6 C
29.08.2012 23:41 18,6 C 70 % 1016,2 hPa 0,0 l/m 2,5 km/h (1 Bft) O-SO 112 13,0 C 18,6 C
29.08.2012 23:46 18,5 C 71 % 1016,3 hPa 0,0 l/m 4,0 km/h (1 Bft) O-SO 112 13,1 C 18,5 C
29.08.2012 23:51 18,4 C 70 % 1016,2 hPa 0,0 l/m 7,2 km/h (2 Bft) O-SO 112 12,8 C 18,4 C
29.08.2012 23:56 18,4 C 71 % 1016,2 hPa 0,0 l/m 0,0 km/h (0 Bft) O-SO 112 13,0 C 18,4 C
_ Min-Zeit 05:21 16:46 23:21 - 00:01 - - 05:26 05:21
Minimum _ 13,5 C 37 % 1016,2 hPa - 0,0 km/h (0 Bft) - - 10,8 C 13,5 C
_ Max-Zeit 16:41 06:31 09:26 00:01 15:11 - - 10:21 16:41
Maximum _ 28,7 C 87 % 1020,3 hPa 0,0 l/m 16,9 km/h
S-SO (3 Bft)
- - 15,7 C 28,7 C
Durchschnitt _ 20,6 C 65 % 1018,3 hPa #0,0 l/m 2,9 km/h (1 Bft) O-SO - 13,0 C 20,6 C
(c) by David Heller